sensor_id;sensor_type;location;lat;lon;timestamp;temperature;humidity
19449;DHT22;9863;49.404;8.246;2022-09-12T00:01:22;14.30;99.90
19449;DHT22;9863;49.404;8.246;2022-09-12T00:03:57;13.30;99.90
19449;DHT22;9863;49.404;8.246;2022-09-12T00:06:34;13.30;99.90
19449;DHT22;9863;49.404;8.246;2022-09-12T00:09:06;13.20;99.90
19449;DHT22;9863;49.404;8.246;2022-09-12T00:11:37;13.30;99.90
19449;DHT22;9863;49.404;8.246;2022-09-12T00:14:07;13.30;99.90
19449;DHT22;9863;49.404;8.246;2022-09-12T00:16:37;13.40;99.90
19449;DHT22;9863;49.404;8.246;2022-09-12T00:19:06;13.40;99.90
19449;DHT22;9863;49.404;8.246;2022-09-12T00:21:35;13.30;99.90
19449;DHT22;9863;49.404;8.246;2022-09-12T00:29:01;13.40;99.90
19449;DHT22;9863;49.404;8.246;2022-09-12T00:31:29;13.10;99.90
19449;DHT22;9863;49.404;8.246;2022-09-12T00:33:58;13.00;99.90
19449;DHT22;9863;49.404;8.246;2022-09-12T00:36:29;12.90;99.90
19449;DHT22;9863;49.404;8.246;2022-09-12T00:38:58;13.10;99.90
19449;DHT22;9863;49.404;8.246;2022-09-12T00:41:34;13.20;99.90
19449;DHT22;9863;49.404;8.246;2022-09-12T00:47:26;13.20;99.90
19449;DHT22;9863;49.404;8.246;2022-09-12T00:50:04;13.20;99.90
19449;DHT22;9863;49.404;8.246;2022-09-12T00:52:40;13.20;99.90
19449;DHT22;9863;49.404;8.246;2022-09-12T00:55:25;14.80;99.90
19449;DHT22;9863;49.404;8.246;2022-09-12T00:57:56;13.20;99.90
19449;DHT22;9863;49.404;8.246;2022-09-12T01:03:08;13.10;99.90
19449;DHT22;9863;49.404;8.246;2022-09-12T01:05:43;13.00;99.90
19449;DHT22;9863;49.404;8.246;2022-09-12T01:08:24;13.00;99.90
19449;DHT22;9863;49.404;8.246;2022-09-12T01:10:55;13.00;99.90
19449;DHT22;9863;49.404;8.246;2022-09-12T01:32:46;12.80;99.90
19449;DHT22;9863;49.404;8.246;2022-09-12T01:35:28;12.70;99.90
19449;DHT22;9863;49.404;8.246;2022-09-12T01:38:52;12.40;99.90
19449;DHT22;9863;49.404;8.246;2022-09-12T01:42:03;12.60;99.90
19449;DHT22;9863;49.404;8.246;2022-09-12T01:44:54;12.60;99.90
19449;DHT22;9863;49.404;8.246;2022-09-12T01:47:40;12.60;99.90
19449;DHT22;9863;49.404;8.246;2022-09-12T01:53:05;12.50;99.90
19449;DHT22;9863;49.404;8.246;2022-09-12T01:55:41;12.50;99.90
19449;DHT22;9863;49.404;8.246;2022-09-12T01:58:25;12.60;99.90
19449;DHT22;9863;49.404;8.246;2022-09-12T02:03:48;12.30;99.90
19449;DHT22;9863;49.404;8.246;2022-09-12T02:06:25;12.40;99.90
19449;DHT22;9863;49.404;8.246;2022-09-12T02:09:02;12.40;99.90
19449;DHT22;9863;49.404;8.246;2022-09-12T02:11:34;12.30;99.90
19449;DHT22;9863;49.404;8.246;2022-09-12T02:14:12;12.30;99.90
19449;DHT22;9863;49.404;8.246;2022-09-12T02:16:53;12.30;99.90
19449;DHT22;9863;49.404;8.246;2022-09-12T02:19:28;12.30;99.90
19449;DHT22;9863;49.404;8.246;2022-09-12T02:22:01;12.30;99.90
19449;DHT22;9863;49.404;8.246;2022-09-12T02:24:37;12.40;99.90
19449;DHT22;9863;49.404;8.246;2022-09-12T02:27:14;12.30;99.90
19449;DHT22;9863;49.404;8.246;2022-09-12T02:29:44;12.20;99.90
19449;DHT22;9863;49.404;8.246;2022-09-12T02:35:13;12.20;99.90
19449;DHT22;9863;49.404;8.246;2022-09-12T02:42:42;12.10;99.90
19449;DHT22;9863;49.404;8.246;2022-09-12T02:45:10;12.20;99.90
19449;DHT22;9863;49.404;8.246;2022-09-12T02:47:52;12.20;99.90
19449;DHT22;9863;49.404;8.246;2022-09-12T02:50:24;12.10;99.90
19449;DHT22;9863;49.404;8.246;2022-09-12T02:52:52;12.10;99.90
19449;DHT22;9863;49.404;8.246;2022-09-12T03:08:20;12.00;99.90
19449;DHT22;9863;49.404;8.246;2022-09-12T03:20:01;11.80;99.90
19449;DHT22;9863;49.404;8.246;2022-09-12T03:25:13;11.70;99.90
19449;DHT22;9863;49.404;8.246;2022-09-12T03:27:57;11.60;99.90
19449;DHT22;9863;49.404;8.246;2022-09-12T03:32:55;11.70;99.90
19449;DHT22;9863;49.404;8.246;2022-09-12T03:35:24;11.70;99.90
19449;DHT22;9863;49.404;8.246;2022-09-12T03:37:52;11.50;99.90
19449;DHT22;9863;49.404;8.246;2022-09-12T03:40:20;11.70;99.90
19449;DHT22;9863;49.404;8.246;2022-09-12T03:45:16;11.60;99.90
19449;DHT22;9863;49.404;8.246;2022-09-12T03:57:37;11.50;99.90
19449;DHT22;9863;49.404;8.246;2022-09-12T04:00:06;11.60;99.90
19449;DHT22;9863;49.404;8.246;2022-09-12T04:10:06;11.50;99.90
19449;DHT22;9863;49.404;8.246;2022-09-12T04:20:03;11.70;99.90
19449;DHT22;9863;49.404;8.246;2022-09-12T04:34:52;11.60;99.90
19449;DHT22;9863;49.404;8.246;2022-09-12T04:44:47;11.50;99.90
19449;DHT22;9863;49.404;8.246;2022-09-12T04:47:15;11.50;99.90
19449;DHT22;9863;49.404;8.246;2022-09-12T05:02:04;11.30;99.90
19449;DHT22;9863;49.404;8.246;2022-09-12T05:09:29;11.20;99.90
19449;DHT22;9863;49.404;8.246;2022-09-12T05:14:31;11.00;99.90
19449;DHT22;9863;49.404;8.246;2022-09-12T05:17:00;12.70;99.90
19449;DHT22;9863;49.404;8.246;2022-09-12T05:19:29;11.20;99.90
19449;DHT22;9863;49.404;8.246;2022-09-12T05:24:26;11.10;99.90
19449;DHT22;9863;49.404;8.246;2022-09-12T05:34:20;11.30;99.90
19449;DHT22;9863;49.404;8.246;2022-09-12T05:46:43;11.70;99.90
19449;DHT22;9863;49.404;8.246;2022-09-12T05:51:43;11.80;99.90
19449;DHT22;9863;49.404;8.246;2022-09-12T05:54:14;11.90;99.90
19449;DHT22;9863;49.404;8.246;2022-09-12T05:59:18;12.10;99.90
19449;DHT22;9863;49.404;8.246;2022-09-12T06:01:47;12.10;99.90
19449;DHT22;9863;49.404;8.246;2022-09-12T06:06:44;12.20;99.90
19449;DHT22;9863;49.404;8.246;2022-09-12T06:09:14;12.30;99.90
19449;DHT22;9863;49.404;8.246;2022-09-12T06:11:44;12.40;99.90
19449;DHT22;9863;49.404;8.246;2022-09-12T06:14:14;12.40;99.90
19449;DHT22;9863;49.404;8.246;2022-09-12T06:19:14;12.60;99.90
19449;DHT22;9863;49.404;8.246;2022-09-12T06:21:46;12.60;99.90
19449;DHT22;9863;49.404;8.246;2022-09-12T06:24:19;12.70;99.90
19449;DHT22;9863;49.404;8.246;2022-09-12T06:26:48;12.60;99.90
19449;DHT22;9863;49.404;8.246;2022-09-12T06:29:16;12.80;99.90
19449;DHT22;9863;49.404;8.246;2022-09-12T06:34:14;13.10;99.90
19449;DHT22;9863;49.404;8.246;2022-09-12T06:36:45;13.10;99.90
19449;DHT22;9863;49.404;8.246;2022-09-12T06:39:16;13.20;99.90
19449;DHT22;9863;49.404;8.246;2022-09-12T06:41:49;13.10;99.90
19449;DHT22;9863;49.404;8.246;2022-09-12T06:44:20;13.10;99.90
19449;DHT22;9863;49.404;8.246;2022-09-12T06:54:14;13.50;99.90
19449;DHT22;9863;49.404;8.246;2022-09-12T06:56:44;13.60;99.90
19449;DHT22;9863;49.404;8.246;2022-09-12T07:04:09;13.80;99.90
19449;DHT22;9863;49.404;8.246;2022-09-12T07:06:39;13.80;99.90
19449;DHT22;9863;49.404;8.246;2022-09-12T07:09:13;14.00;99.90
19449;DHT22;9863;49.404;8.246;2022-09-12T07:11:45;14.00;99.90
19449;DHT22;9863;49.404;8.246;2022-09-12T07:14:14;14.20;99.90
19449;DHT22;9863;49.404;8.246;2022-09-12T07:19:10;14.30;99.90
19449;DHT22;9863;49.404;8.246;2022-09-12T07:24:44;14.60;99.90
19449;DHT22;9863;49.404;8.246;2022-09-12T07:30:18;14.70;99.90
19449;DHT22;9863;49.404;8.246;2022-09-12T07:33:04;14.80;99.90
19449;DHT22;9863;49.404;8.246;2022-09-12T07:41:27;14.90;99.90
19449;DHT22;9863;49.404;8.246;2022-09-12T07:49:49;15.40;99.90
19449;DHT22;9863;49.404;8.246;2022-09-12T08:01:14;15.70;99.90
19449;DHT22;9863;49.404;8.246;2022-09-12T08:09:38;16.00;99.90
19449;DHT22;9863;49.404;8.246;2022-09-12T08:17:59;16.00;99.90
19449;DHT22;9863;49.404;8.246;2022-09-12T08:23:34;16.50;99.90
19449;DHT22;9863;49.404;8.246;2022-09-12T08:37:30;17.20;99.90
19449;DHT22;9863;49.404;8.246;2022-09-12T08:43:02;17.50;99.90
19449;DHT22;9863;49.404;8.246;2022-09-12T08:46:01;17.80;99.90
19449;DHT22;9863;49.404;8.246;2022-09-12T08:48:45;17.90;99.90
19449;DHT22;9863;49.404;8.246;2022-09-12T08:51:16;17.90;99.90
19449;DHT22;9863;49.404;8.246;2022-09-12T08:53:48;18.00;99.90
19449;DHT22;9863;49.404;8.246;2022-09-12T08:58:46;18.10;99.90
19449;DHT22;9863;49.404;8.246;2022-09-12T09:01:31;18.60;99.90
19449;DHT22;9863;49.404;8.246;2022-09-12T09:04:32;18.50;99.90
19449;DHT22;9863;49.404;8.246;2022-09-12T09:07:30;18.80;99.90
19449;DHT22;9863;49.404;8.246;2022-09-12T09:14:00;18.60;99.90
19449;DHT22;9863;49.404;8.246;2022-09-12T09:17:10;18.80;99.90
19449;DHT22;9863;49.404;8.246;2022-09-12T09:23:25;18.80;99.90
19449;DHT22;9863;49.404;8.246;2022-09-12T09:29:06;19.20;99.90
19449;DHT22;9863;49.404;8.246;2022-09-12T09:32:00;19.60;99.90
19449;DHT22;9863;49.404;8.246;2022-09-12T09:38:59;20.40;99.90
19449;DHT22;9863;49.404;8.246;2022-09-12T09:44:36;20.20;99.90
19449;DHT22;9863;49.404;8.246;2022-09-12T09:47:23;19.90;99.90
19449;DHT22;9863;49.404;8.246;2022-09-12T09:50:13;20.40;99.90
19449;DHT22;9863;49.404;8.246;2022-09-12T09:53:02;20.40;99.90
19449;DHT22;9863;49.404;8.246;2022-09-12T09:55:51;20.60;99.90
19449;DHT22;9863;49.404;8.246;2022-09-12T09:58:33;21.50;99.90
19449;DHT22;9863;49.404;8.246;2022-09-12T10:03:54;21.50;99.90
19449;DHT22;9863;49.404;8.246;2022-09-12T10:06:32;22.20;99.90
19449;DHT22;9863;49.404;8.246;2022-09-12T10:19:36;22.10;99.90
19449;DHT22;9863;49.404;8.246;2022-09-12T10:22:17;22.30;99.90
19449;DHT22;9863;49.404;8.246;2022-09-12T10:24:52;22.10;99.90
19449;DHT22;9863;49.404;8.246;2022-09-12T10:27:28;22.00;99.90
19449;DHT22;9863;49.404;8.246;2022-09-12T10:35:01;23.60;99.90
19449;DHT22;9863;49.404;8.246;2022-09-12T10:37:36;22.80;99.90
19449;DHT22;9863;49.404;8.246;2022-09-12T10:40:21;23.00;99.90
19449;DHT22;9863;49.404;8.246;2022-09-12T10:42:56;22.80;99.90
19449;DHT22;9863;49.404;8.246;2022-09-12T10:47:57;23.40;99.90
19449;DHT22;9863;49.404;8.246;2022-09-12T10:50:38;23.80;99.90
19449;DHT22;9863;49.404;8.246;2022-09-12T10:53:28;23.50;99.90
19449;DHT22;9863;49.404;8.246;2022-09-12T10:56:12;24.40;99.90
19449;DHT22;9863;49.404;8.246;2022-09-12T11:01:49;23.70;99.90
19449;DHT22;9863;49.404;8.246;2022-09-12T11:05:13;23.50;99.90
19449;DHT22;9863;49.404;8.246;2022-09-12T11:11:56;25.80;99.90
19449;DHT22;9863;49.404;8.246;2022-09-12T11:30:36;25.60;99.90
19449;DHT22;9863;49.404;8.246;2022-09-12T11:33:49;25.70;99.90
19449;DHT22;9863;49.404;8.246;2022-09-12T11:43:43;26.10;99.90
19449;DHT22;9863;49.404;8.246;2022-09-12T11:46:35;26.40;99.90
19449;DHT22;9863;49.404;8.246;2022-09-12T11:52:13;26.40;99.90
19449;DHT22;9863;49.404;8.246;2022-09-12T11:57:54;25.70;99.90
19449;DHT22;9863;49.404;8.246;2022-09-12T12:00:45;25.20;99.90
19449;DHT22;9863;49.404;8.246;2022-09-12T12:03:39;25.50;99.90
19449;DHT22;9863;49.404;8.246;2022-09-12T12:06:17;25.20;99.90
19449;DHT22;9863;49.404;8.246;2022-09-12T12:08:50;25.20;99.90
19449;DHT22;9863;49.404;8.246;2022-09-12T12:11:34;25.90;99.90
19449;DHT22;9863;49.404;8.246;2022-09-12T12:14:28;27.50;99.90
19449;DHT22;9863;49.404;8.246;2022-09-12T12:19:35;26.20;99.90
19449;DHT22;9863;49.404;8.246;2022-09-12T12:22:14;26.60;99.90
19449;DHT22;9863;49.404;8.246;2022-09-12T12:27:54;26.60;99.90
19449;DHT22;9863;49.404;8.246;2022-09-12T12:36:04;27.20;99.90
19449;DHT22;9863;49.404;8.246;2022-09-12T12:38:38;27.40;99.90
19449;DHT22;9863;49.404;8.246;2022-09-12T12:43:55;26.90;99.90
19449;DHT22;9863;49.404;8.246;2022-09-12T12:46:27;27.50;99.90
19449;DHT22;9863;49.404;8.246;2022-09-12T12:49:08;27.90;99.90
19449;DHT22;9863;49.404;8.246;2022-09-12T12:57:26;26.90;99.90
19449;DHT22;9863;49.404;8.246;2022-09-12T13:02:39;28.90;99.90
19449;DHT22;9863;49.404;8.246;2022-09-12T13:05:19;27.60;99.90
19449;DHT22;9863;49.404;8.246;2022-09-12T13:10:55;29.40;99.90
19449;DHT22;9863;49.404;8.246;2022-09-12T13:16:11;30.00;99.90
19449;DHT22;9863;49.404;8.246;2022-09-12T13:19:11;30.80;99.90
19449;DHT22;9863;49.404;8.246;2022-09-12T13:21:55;30.20;99.90
19449;DHT22;9863;49.404;8.246;2022-09-12T13:26:52;28.90;99.90
19449;DHT22;9863;49.404;8.246;2022-09-12T13:29:22;28.90;99.90
19449;DHT22;9863;49.404;8.246;2022-09-12T13:31:58;29.60;99.90
19449;DHT22;9863;49.404;8.246;2022-09-12T13:37:49;29.30;99.90
19449;DHT22;9863;49.404;8.246;2022-09-12T13:40:41;30.90;99.90
19449;DHT22;9863;49.404;8.246;2022-09-12T13:43:44;31.40;99.90
19449;DHT22;9863;49.404;8.246;2022-09-12T13:46:26;31.90;99.90
19449;DHT22;9863;49.404;8.246;2022-09-12T13:48:57;32.30;99.90
19449;DHT22;9863;49.404;8.246;2022-09-12T13:51:28;31.10;99.90
19449;DHT22;9863;49.404;8.246;2022-09-12T13:54:01;31.00;99.90
19449;DHT22;9863;49.404;8.246;2022-09-12T13:59:00;29.10;99.90
19449;DHT22;9863;49.404;8.246;2022-09-12T14:01:55;28.30;99.90
19449;DHT22;9863;49.404;8.246;2022-09-12T14:04:26;27.90;99.90
19449;DHT22;9863;49.404;8.246;2022-09-12T14:07:24;27.90;99.90
19449;DHT22;9863;49.404;8.246;2022-09-12T14:09:55;28.40;99.90
19449;DHT22;9863;49.404;8.246;2022-09-12T14:14:58;28.00;99.90
19449;DHT22;9863;49.404;8.246;2022-09-12T14:17:35;28.00;99.90
19449;DHT22;9863;49.404;8.246;2022-09-12T14:20:14;28.20;99.90
19449;DHT22;9863;49.404;8.246;2022-09-12T14:22:43;29.20;99.90
19449;DHT22;9863;49.404;8.246;2022-09-12T14:25:22;29.70;99.90
19449;DHT22;9863;49.404;8.246;2022-09-12T14:27:53;29.70;99.90
19449;DHT22;9863;49.404;8.246;2022-09-12T14:30:28;29.70;99.90
19449;DHT22;9863;49.404;8.246;2022-09-12T14:35:38;30.60;99.90
19449;DHT22;9863;49.404;8.246;2022-09-12T14:40:46;31.00;99.90
19449;DHT22;9863;49.404;8.246;2022-09-12T14:43:43;31.20;99.90
19449;DHT22;9863;49.404;8.246;2022-09-12T14:46:26;30.30;96.30
19449;DHT22;9863;49.404;8.246;2022-09-12T14:51:59;29.40;99.90
19449;DHT22;9863;49.404;8.246;2022-09-12T14:56:59;30.20;98.70
19449;DHT22;9863;49.404;8.246;2022-09-12T15:02:23;29.90;99.90
19449;DHT22;9863;49.404;8.246;2022-09-12T15:07:32;31.60;99.90
19449;DHT22;9863;49.404;8.246;2022-09-12T15:10:16;31.70;99.20
19449;DHT22;9863;49.404;8.246;2022-09-12T15:15:18;31.30;98.40
19449;DHT22;9863;49.404;8.246;2022-09-12T15:25:12;30.30;99.90
19449;DHT22;9863;49.404;8.246;2022-09-12T15:30:09;30.20;99.20
19449;DHT22;9863;49.404;8.246;2022-09-12T15:32:41;31.00;97.40
19449;DHT22;9863;49.404;8.246;2022-09-12T15:35:19;31.50;98.10
19449;DHT22;9863;49.404;8.246;2022-09-12T15:45:21;31.30;96.50
19449;DHT22;9863;49.404;8.246;2022-09-12T15:52:48;31.60;95.90
19449;DHT22;9863;49.404;8.246;2022-09-12T15:55:20;31.30;93.00
19449;DHT22;9863;49.404;8.246;2022-09-12T15:57:50;31.30;95.90
19449;DHT22;9863;49.404;8.246;2022-09-12T16:00:19;31.80;96.60
19449;DHT22;9863;49.404;8.246;2022-09-12T16:02:49;32.10;97.10
19449;DHT22;9863;49.404;8.246;2022-09-12T16:05:22;32.10;96.30
19449;DHT22;9863;49.404;8.246;2022-09-12T16:07:53;31.60;94.20
19449;DHT22;9863;49.404;8.246;2022-09-12T16:10:24;31.50;95.70
19449;DHT22;9863;49.404;8.246;2022-09-12T16:16:13;31.60;93.70
19449;DHT22;9863;49.404;8.246;2022-09-12T16:23:43;31.40;94.10
19449;DHT22;9863;49.404;8.246;2022-09-12T16:26:11;31.50;94.00
19449;DHT22;9863;49.404;8.246;2022-09-12T16:31:11;31.90;93.90
19449;DHT22;9863;49.404;8.246;2022-09-12T16:33:40;31.90;94.00
19449;DHT22;9863;49.404;8.246;2022-09-12T16:36:11;31.60;95.00
19449;DHT22;9863;49.404;8.246;2022-09-12T16:38:45;30.60;93.90
19449;DHT22;9863;49.404;8.246;2022-09-12T16:41:15;29.90;93.40
19449;DHT22;9863;49.404;8.246;2022-09-12T16:43:44;30.20;94.60
19449;DHT22;9863;49.404;8.246;2022-09-12T16:46:15;30.50;94.80
19449;DHT22;9863;49.404;8.246;2022-09-12T16:48:50;30.60;95.00
19449;DHT22;9863;49.404;8.246;2022-09-12T16:51:22;30.80;94.90
19449;DHT22;9863;49.404;8.246;2022-09-12T16:56:21;30.80;95.00
19449;DHT22;9863;49.404;8.246;2022-09-12T17:01:22;30.70;95.40
19449;DHT22;9863;49.404;8.246;2022-09-12T17:03:53;30.50;95.50
19449;DHT22;9863;49.404;8.246;2022-09-12T17:06:23;30.50;95.60
19449;DHT22;9863;49.404;8.246;2022-09-12T17:08:53;30.30;96.20
19449;DHT22;9863;49.404;8.246;2022-09-12T17:11:25;30.10;97.30
19449;DHT22;9863;49.404;8.246;2022-09-12T17:14:00;29.90;98.30
19449;DHT22;9863;49.404;8.246;2022-09-12T17:16:35;29.70;99.10
19449;DHT22;9863;49.404;8.246;2022-09-12T17:19:06;29.50;99.90
19449;DHT22;9863;49.404;8.246;2022-09-12T17:21:34;29.10;99.90
19449;DHT22;9863;49.404;8.246;2022-09-12T17:31:28;28.30;99.90
19449;DHT22;9863;49.404;8.246;2022-09-12T17:33:57;28.10;99.90
19449;DHT22;9863;49.404;8.246;2022-09-12T17:36:27;27.80;99.90
19449;DHT22;9863;49.404;8.246;2022-09-12T17:41:25;27.30;99.90
19449;DHT22;9863;49.404;8.246;2022-09-12T17:43:55;27.00;99.90
19449;DHT22;9863;49.404;8.246;2022-09-12T17:46:30;26.80;99.90
19449;DHT22;9863;49.404;8.246;2022-09-12T17:49:04;26.50;99.90
19449;DHT22;9863;49.404;8.246;2022-09-12T17:51:33;24.50;99.90
19449;DHT22;9863;49.404;8.246;2022-09-12T17:54:09;26.00;99.90
19449;DHT22;9863;49.404;8.246;2022-09-12T17:59:12;25.40;99.90
19449;DHT22;9863;49.404;8.246;2022-09-12T18:14:23;23.90;99.90
19449;DHT22;9863;49.404;8.246;2022-09-12T18:16:54;23.70;99.90
19449;DHT22;9863;49.404;8.246;2022-09-12T18:19:27;23.60;99.90
19449;DHT22;9863;49.404;8.246;2022-09-12T18:24:23;23.10;99.90
19449;DHT22;9863;49.404;8.246;2022-09-12T18:29:38;22.70;99.90
19449;DHT22;9863;49.404;8.246;2022-09-12T18:32:06;22.50;99.90
19449;DHT22;9863;49.404;8.246;2022-09-12T18:34:34;22.50;99.90
19449;DHT22;9863;49.404;8.246;2022-09-12T18:37:02;22.40;99.90
19449;DHT22;9863;49.404;8.246;2022-09-12T18:39:31;22.20;99.90
19449;DHT22;9863;49.404;8.246;2022-09-12T18:41:59;21.80;99.90
19449;DHT22;9863;49.404;8.246;2022-09-12T18:44:27;21.70;99.90
19449;DHT22;9863;49.404;8.246;2022-09-12T18:46:55;21.70;99.90
19449;DHT22;9863;49.404;8.246;2022-09-12T18:49:22;21.30;99.90
19449;DHT22;9863;49.404;8.246;2022-09-12T18:51:50;21.30;99.90
19449;DHT22;9863;49.404;8.246;2022-09-12T18:54:18;21.10;99.90
19449;DHT22;9863;49.404;8.246;2022-09-12T18:56:46;21.00;99.90
19449;DHT22;9863;49.404;8.246;2022-09-12T18:59:14;20.80;99.90
19449;DHT22;9863;49.404;8.246;2022-09-12T19:01:43;20.70;99.90
19449;DHT22;9863;49.404;8.246;2022-09-12T19:04:12;20.70;99.90
19449;DHT22;9863;49.404;8.246;2022-09-12T19:06:43;20.40;99.90
19449;DHT22;9863;49.404;8.246;2022-09-12T19:09:15;20.30;99.90
19449;DHT22;9863;49.404;8.246;2022-09-12T19:11:45;20.20;99.90
19449;DHT22;9863;49.404;8.246;2022-09-12T19:14:18;20.10;99.90
19449;DHT22;9863;49.404;8.246;2022-09-12T19:16:50;19.80;99.90
19449;DHT22;9863;49.404;8.246;2022-09-12T19:19:20;19.30;99.90
19449;DHT22;9863;49.404;8.246;2022-09-12T19:21:48;19.00;99.90
19449;DHT22;9863;49.404;8.246;2022-09-12T19:24:16;18.90;99.90
19449;DHT22;9863;49.404;8.246;2022-09-12T19:26:44;18.80;99.90
19449;DHT22;9863;49.404;8.246;2022-09-12T19:29:13;18.90;99.90
19449;DHT22;9863;49.404;8.246;2022-09-12T19:31:43;18.90;99.90
19449;DHT22;9863;49.404;8.246;2022-09-12T19:34:13;19.00;99.90
19449;DHT22;9863;49.404;8.246;2022-09-12T19:36:41;18.90;99.90
19449;DHT22;9863;49.404;8.246;2022-09-12T19:39:14;18.70;99.90
19449;DHT22;9863;49.404;8.246;2022-09-12T19:41:43;18.60;99.90
19449;DHT22;9863;49.404;8.246;2022-09-12T19:44:12;18.50;99.90
19449;DHT22;9863;49.404;8.246;2022-09-12T19:46:40;18.20;99.90
19449;DHT22;9863;49.404;8.246;2022-09-12T19:49:09;18.10;99.90
19449;DHT22;9863;49.404;8.246;2022-09-12T19:51:38;18.00;99.90
19449;DHT22;9863;49.404;8.246;2022-09-12T19:54:06;17.90;99.90
19449;DHT22;9863;49.404;8.246;2022-09-12T19:56:34;17.80;99.90
19449;DHT22;9863;49.404;8.246;2022-09-12T19:59:02;17.70;99.90
19449;DHT22;9863;49.404;8.246;2022-09-12T20:01:30;17.70;99.90
19449;DHT22;9863;49.404;8.246;2022-09-12T20:03:59;17.70;99.90
19449;DHT22;9863;49.404;8.246;2022-09-12T20:06:26;17.80;99.90
19449;DHT22;9863;49.404;8.246;2022-09-12T20:08:54;17.60;99.90
19449;DHT22;9863;49.404;8.246;2022-09-12T20:11:23;17.50;99.90
19449;DHT22;9863;49.404;8.246;2022-09-12T20:13:52;17.30;99.90
19449;DHT22;9863;49.404;8.246;2022-09-12T20:16:23;17.30;99.90
19449;DHT22;9863;49.404;8.246;2022-09-12T20:19:02;17.20;99.90
19449;DHT22;9863;49.404;8.246;2022-09-12T20:21:34;17.10;99.90
19449;DHT22;9863;49.404;8.246;2022-09-12T20:24:11;17.00;99.90
19449;DHT22;9863;49.404;8.246;2022-09-12T20:26:40;16.90;99.90
19449;DHT22;9863;49.404;8.246;2022-09-12T20:29:08;16.90;99.90
19449;DHT22;9863;49.404;8.246;2022-09-12T20:31:38;16.90;99.90
19449;DHT22;9863;49.404;8.246;2022-09-12T20:34:17;17.00;99.90
19449;DHT22;9863;49.404;8.246;2022-09-12T20:36:47;17.00;99.90
19449;DHT22;9863;49.404;8.246;2022-09-12T20:39:19;17.00;99.90
19449;DHT22;9863;49.404;8.246;2022-09-12T20:41:48;16.90;99.90
19449;DHT22;9863;49.404;8.246;2022-09-12T20:44:16;16.70;99.90
19449;DHT22;9863;49.404;8.246;2022-09-12T20:46:44;16.70;99.90
19449;DHT22;9863;49.404;8.246;2022-09-12T20:49:13;16.60;99.90
19449;DHT22;9863;49.404;8.246;2022-09-12T20:51:41;16.70;99.90
19449;DHT22;9863;49.404;8.246;2022-09-12T20:54:09;16.50;99.90
19449;DHT22;9863;49.404;8.246;2022-09-12T20:56:37;16.40;99.90
19449;DHT22;9863;49.404;8.246;2022-09-12T20:59:05;16.40;99.90
19449;DHT22;9863;49.404;8.246;2022-09-12T21:01:33;16.30;99.90
19449;DHT22;9863;49.404;8.246;2022-09-12T21:04:01;16.30;99.90
19449;DHT22;9863;49.404;8.246;2022-09-12T21:06:29;16.40;99.90
19449;DHT22;9863;49.404;8.246;2022-09-12T21:08:58;16.20;99.90
19449;DHT22;9863;49.404;8.246;2022-09-12T21:11:27;16.00;99.90
19449;DHT22;9863;49.404;8.246;2022-09-12T21:13:56;15.90;99.90
19449;DHT22;9863;49.404;8.246;2022-09-12T21:16:24;15.80;99.90
19449;DHT22;9863;49.404;8.246;2022-09-12T21:18:54;15.70;99.90
19449;DHT22;9863;49.404;8.246;2022-09-12T21:21:24;15.70;99.90
19449;DHT22;9863;49.404;8.246;2022-09-12T21:23:56;15.60;99.90
19449;DHT22;9863;49.404;8.246;2022-09-12T21:26:25;15.80;99.90
19449;DHT22;9863;49.404;8.246;2022-09-12T21:28:53;15.80;99.90
19449;DHT22;9863;49.404;8.246;2022-09-12T21:31:21;15.70;99.90
19449;DHT22;9863;49.404;8.246;2022-09-12T21:33:50;15.70;99.90
19449;DHT22;9863;49.404;8.246;2022-09-12T21:36:18;15.80;99.90
19449;DHT22;9863;49.404;8.246;2022-09-12T21:38:46;15.90;99.90
19449;DHT22;9863;49.404;8.246;2022-09-12T21:41:15;16.00;99.90
19449;DHT22;9863;49.404;8.246;2022-09-12T21:43:43;16.00;99.90
19449;DHT22;9863;49.404;8.246;2022-09-12T21:46:11;16.10;99.90
19449;DHT22;9863;49.404;8.246;2022-09-12T21:48:41;16.00;99.90
19449;DHT22;9863;49.404;8.246;2022-09-12T21:51:09;15.70;99.90
19449;DHT22;9863;49.404;8.246;2022-09-12T21:53:37;15.70;99.90
19449;DHT22;9863;49.404;8.246;2022-09-12T21:56:06;15.70;99.90
19449;DHT22;9863;49.404;8.246;2022-09-12T21:58:35;15.70;99.90
19449;DHT22;9863;49.404;8.246;2022-09-12T22:01:04;15.70;99.90
19449;DHT22;9863;49.404;8.246;2022-09-12T22:03:35;15.60;99.90
19449;DHT22;9863;49.404;8.246;2022-09-12T22:06:04;15.50;99.90
19449;DHT22;9863;49.404;8.246;2022-09-12T22:08:34;15.20;99.90
19449;DHT22;9863;49.404;8.246;2022-09-12T22:11:04;15.70;99.90
19449;DHT22;9863;49.404;8.246;2022-09-12T22:13:37;15.70;99.90
19449;DHT22;9863;49.404;8.246;2022-09-12T22:16:10;15.70;99.90
19449;DHT22;9863;49.404;8.246;2022-09-12T22:18:38;15.50;99.90
19449;DHT22;9863;49.404;8.246;2022-09-12T22:21:09;15.40;99.90
19449;DHT22;9863;49.404;8.246;2022-09-12T22:23:44;15.40;99.90
19449;DHT22;9863;49.404;8.246;2022-09-12T22:26:37;15.40;99.90
19449;DHT22;9863;49.404;8.246;2022-09-12T22:29:09;15.40;99.90
19449;DHT22;9863;49.404;8.246;2022-09-12T22:31:38;15.40;99.90
19449;DHT22;9863;49.404;8.246;2022-09-12T22:34:06;15.40;99.90
19449;DHT22;9863;49.404;8.246;2022-09-12T22:36:34;15.40;99.90
19449;DHT22;9863;49.404;8.246;2022-09-12T22:39:06;14.80;99.90
19449;DHT22;9863;49.404;8.246;2022-09-12T22:41:34;15.30;99.90
19449;DHT22;9863;49.404;8.246;2022-09-12T22:44:02;15.20;99.90
19449;DHT22;9863;49.404;8.246;2022-09-12T22:46:30;15.20;99.90
19449;DHT22;9863;49.404;8.246;2022-09-12T22:48:59;15.30;99.90
19449;DHT22;9863;49.404;8.246;2022-09-12T22:51:27;15.30;99.90
19449;DHT22;9863;49.404;8.246;2022-09-12T22:53:54;15.20;99.90
19449;DHT22;9863;49.404;8.246;2022-09-12T22:56:23;15.00;99.90
19449;DHT22;9863;49.404;8.246;2022-09-12T22:58:51;15.00;99.90
19449;DHT22;9863;49.404;8.246;2022-09-12T23:03:47;15.00;99.90
19449;DHT22;9863;49.404;8.246;2022-09-12T23:06:16;15.00;99.90
19449;DHT22;9863;49.404;8.246;2022-09-12T23:08:44;14.90;99.90
19449;DHT22;9863;49.404;8.246;2022-09-12T23:11:14;14.80;99.90
19449;DHT22;9863;49.404;8.246;2022-09-12T23:13:44;14.80;99.90
19449;DHT22;9863;49.404;8.246;2022-09-12T23:16:21;14.80;99.90
19449;DHT22;9863;49.404;8.246;2022-09-12T23:18:51;13.80;99.90
19449;DHT22;9863;49.404;8.246;2022-09-12T23:21:20;14.70;99.90
19449;DHT22;9863;49.404;8.246;2022-09-12T23:23:49;14.70;99.90
19449;DHT22;9863;49.404;8.246;2022-09-12T23:26:19;14.60;99.90
19449;DHT22;9863;49.404;8.246;2022-09-12T23:28:54;14.60;99.90
19449;DHT22;9863;49.404;8.246;2022-09-12T23:31:24;14.60;99.90
19449;DHT22;9863;49.404;8.246;2022-09-12T23:33:58;14.60;99.90
19449;DHT22;9863;49.404;8.246;2022-09-12T23:36:29;14.60;99.90
19449;DHT22;9863;49.404;8.246;2022-09-12T23:38:57;14.50;99.90
19449;DHT22;9863;49.404;8.246;2022-09-12T23:41:25;14.60;99.90
19449;DHT22;9863;49.404;8.246;2022-09-12T23:43:54;14.60;99.90
19449;DHT22;9863;49.404;8.246;2022-09-12T23:46:22;13.60;99.90
19449;DHT22;9863;49.404;8.246;2022-09-12T23:48:50;14.50;99.90
19449;DHT22;9863;49.404;8.246;2022-09-12T23:51:20;14.40;99.90